Aérodrome :
LOGIN :

S'inscrire | Disclaimer

   EN    FR    IT 

 










Légende :    VFR   VFR Marginal   IFR   IFR Intensif   IFR Très Intensif
Visi : 
Plafond : 
>= 8 km
>= 3000ft
5 à 8 km
1000 à 3000 ft
1500m à 5 km
500 à 1000 ft
800 à 1500m
200 à 500 ft
< 800m
< 200 ft
Symboles :   Orages  Brouillard  Fortes neiges  Fortes précipitations  Vent > 20 kt
SIGMETs :   Divers  Orages  Givrage  Turbulence  Onde Orograph.  Cendres Volcan.






- Altitude de l'aérodrome : 183 ft


LIBA - Amendola Foggia

DERNIER METAR :
  • 171455Z 08008KT CAVOK 14/05 Q1023 RMK FEW FEW220 VIS MIN 9999 WIND THR11 09010KT WIND THR29 /////KT BLU

METARs EXPIRÉS :
  • 171355Z 08008KT CAVOK 16/03 Q1024 RMK FEW FEW220 VIS MIN 9999 WIND THR11 09010KT WIND THR29 /////KT BLU
  • 171255Z VRB03KT CAVOK 17/M02 Q1024 RMK SCT SCT220 VIS MIN 9999 WIND THR11 VRB02KT WIND THR29 /////KT BLU

TAF TAF LIBA
Valide du 17 à 15h jusqu'au 18 à 00h UTC


171400Z 1715/1724 09008KT 9999 FEW030



MET'MAP, la Météo Aéronautique d'un coup d'oeil ! - Copyright ORBIFLY Décembre 2007 - Disclaimer

ORBIFLY MET'MAP TEAM :

Programmation & Développement : Alexandra Zaïnal
Sur une idée originale de : Baudouin d'Aumeries
Assistance à la programmation : Marc-Olivier Méhu
Soutien technique & logistique : Manuel Goepfert

Contact : metmap@orbifly.com




SOURCES & CREDITS :

   NOAA